createdAt,value
2023-04-16T00:00:51.979Z,2.20
2023-04-16T00:03:18.160Z,1.90
2023-04-16T00:05:44.370Z,1.90
2023-04-16T00:08:10.649Z,2.22
2023-04-16T00:10:36.863Z,1.85
2023-04-16T00:13:02.945Z,1.85
2023-04-16T00:15:28.993Z,2.00
2023-04-16T00:17:55.063Z,2.00
2023-04-16T00:20:21.193Z,1.90
2023-04-16T00:22:47.254Z,2.10
2023-04-16T00:25:13.640Z,2.00
2023-04-16T00:27:39.879Z,1.92
2023-04-16T00:30:06.845Z,1.70
2023-04-16T00:32:32.961Z,1.88
2023-04-16T00:34:59.022Z,1.90
2023-04-16T00:37:25.557Z,1.70
2023-04-16T00:39:51.615Z,1.70
2023-04-16T00:42:17.699Z,1.90
2023-04-16T00:44:43.750Z,1.80
2023-04-16T00:47:10.379Z,2.08
2023-04-16T00:49:37.649Z,1.80
2023-04-16T00:52:03.867Z,2.10
2023-04-16T00:54:31.369Z,1.90
2023-04-16T00:56:59.001Z,1.92
2023-04-16T00:59:26.272Z,1.95
2023-04-16T01:01:52.415Z,1.85
2023-04-16T01:04:18.597Z,1.75
2023-04-16T01:06:44.908Z,2.10
2023-04-16T01:09:11.473Z,2.25
2023-04-16T01:11:37.608Z,1.98
2023-04-16T01:14:03.812Z,1.88
2023-04-16T01:16:30.312Z,1.73
2023-04-16T01:18:56.473Z,2.10
2023-04-16T01:21:22.532Z,1.60
2023-04-16T01:23:48.586Z,1.98
2023-04-16T01:26:14.896Z,1.75
2023-04-16T01:28:41.324Z,2.10
2023-04-16T01:31:07.404Z,2.28
2023-04-16T01:33:33.479Z,2.03
2023-04-16T01:35:59.617Z,2.05
2023-04-16T01:38:25.707Z,2.00
2023-04-16T01:40:56.923Z,1.83
2023-04-16T01:43:23.020Z,1.90
2023-04-16T01:45:49.069Z,2.22
2023-04-16T01:48:15.514Z,2.03
2023-04-16T01:50:41.783Z,2.25
2023-04-16T01:53:09.005Z,2.10
2023-04-16T01:55:35.138Z,2.20
2023-04-16T01:58:01.202Z,1.95
2023-04-16T02:00:27.291Z,2.10
2023-04-16T02:02:53.728Z,2.17
2023-04-16T02:05:19.915Z,2.20
2023-04-16T02:07:45.978Z,2.00
2023-04-16T02:10:12.040Z,1.85
2023-04-16T02:12:38.156Z,2.38
2023-04-16T02:15:04.717Z,2.00
2023-04-16T02:17:30.807Z,1.80
2023-04-16T02:19:56.855Z,1.92
2023-04-16T02:22:22.991Z,1.70
2023-04-16T02:24:49.992Z,1.95
2023-04-16T02:27:16.193Z,1.75
2023-04-16T02:29:42.347Z,1.70
2023-04-16T02:32:08.939Z,1.75
2023-04-16T02:34:35.138Z,1.77
2023-04-16T02:37:01.237Z,1.73
2023-04-16T02:39:27.280Z,1.58
2023-04-16T02:41:53.711Z,1.63
2023-04-16T02:44:19.931Z,1.42
2023-04-16T02:46:46.005Z,1.65
2023-04-16T02:49:12.176Z,1.50
2023-04-16T02:51:38.314Z,1.65
2023-04-16T02:54:04.364Z,1.77
2023-04-16T02:56:30.504Z,1.50
2023-04-16T02:58:56.556Z,1.40
2023-04-16T03:01:22.666Z,1.60
2023-04-16T03:03:48.740Z,1.80
2023-04-16T03:06:15.081Z,1.50
2023-04-16T03:08:41.128Z,1.70
2023-04-16T03:11:07.237Z,1.58
2023-04-16T03:13:33.297Z,1.60
2023-04-16T03:15:59.388Z,1.50
2023-04-16T03:18:25.470Z,1.30
2023-04-16T03:20:52.448Z,1.40
2023-04-16T03:23:18.681Z,1.60
2023-04-16T03:25:47.292Z,1.58
2023-04-16T03:28:14.158Z,1.50
2023-04-16T03:30:40.291Z,1.63
2023-04-16T03:33:06.355Z,1.35
2023-04-16T03:35:32.727Z,1.40
2023-04-16T03:37:58.783Z,1.60
2023-04-16T03:40:25.414Z,1.38
2023-04-16T03:42:51.463Z,1.50
2023-04-16T03:45:17.508Z,1.40
2023-04-16T03:47:43.607Z,1.40
2023-04-16T03:50:10.908Z,1.30
2023-04-16T03:52:36.980Z,1.40
2023-04-16T03:55:03.463Z,1.27
2023-04-16T03:57:29.727Z,1.40
2023-04-16T03:59:55.768Z,1.50
2023-04-16T04:02:21.960Z,1.30
2023-04-16T04:04:48.288Z,1.50
2023-04-16T04:07:15.752Z,1.50
2023-04-16T04:09:41.887Z,1.40
2023-04-16T04:12:09.419Z,1.13
2023-04-16T04:14:39.134Z,1.20
2023-04-16T04:17:06.041Z,1.30
2023-04-16T04:19:32.357Z,1.25
2023-04-16T04:21:58.402Z,1.20
2023-04-16T04:24:25.260Z,1.52
2023-04-16T04:26:51.337Z,1.27
2023-04-16T04:29:17.443Z,1.23
2023-04-16T04:31:43.552Z,1.50
2023-04-16T04:34:09.817Z,1.40
2023-04-16T04:36:35.877Z,1.15
2023-04-16T04:39:01.949Z,1.35
2023-04-16T04:41:28.009Z,1.30
2023-04-16T04:43:54.138Z,1.30
2023-04-16T04:46:20.328Z,1.25
2023-04-16T04:48:46.532Z,1.38
2023-04-16T04:51:12.590Z,1.40
2023-04-16T04:53:38.652Z,1.10
2023-04-16T04:56:11.818Z,1.30
2023-04-16T04:58:40.383Z,1.10
2023-04-16T05:01:06.663Z,1.25
2023-04-16T05:03:32.903Z,1.20
2023-04-16T05:05:59.104Z,1.23
2023-04-16T05:08:25.181Z,1.40
2023-04-16T05:10:51.253Z,1.13
2023-04-16T05:13:17.297Z,1.20
2023-04-16T05:15:45.046Z,1.30
2023-04-16T05:18:11.111Z,1.13
2023-04-16T05:20:37.280Z,1.17
2023-04-16T05:23:03.326Z,1.10
2023-04-16T05:25:29.372Z,1.10
2023-04-16T05:27:55.464Z,1.10
2023-04-16T05:30:21.549Z,1.15
2023-04-16T05:32:47.671Z,1.40
2023-04-16T05:35:16.691Z,1.23
2023-04-16T05:37:43.504Z,1.20
2023-04-16T05:40:10.014Z,1.10
2023-04-16T05:42:36.095Z,1.00
2023-04-16T05:45:04.237Z,1.20
2023-04-16T05:47:30.362Z,1.17
2023-04-16T05:49:56.449Z,1.30
2023-04-16T05:52:22.532Z,1.20
2023-04-16T05:54:48.590Z,1.30
2023-04-16T05:57:14.702Z,1.15
2023-04-16T05:59:40.986Z,1.10
2023-04-16T06:02:07.166Z,1.15
2023-04-16T06:04:35.060Z,1.10
2023-04-16T06:07:01.311Z,1.20
2023-04-16T06:09:27.642Z,1.42
2023-04-16T06:11:53.763Z,1.30
2023-04-16T06:14:19.885Z,1.10
2023-04-16T06:16:46.541Z,1.25
2023-04-16T06:19:12.604Z,1.30
2023-04-16T06:21:38.654Z,1.25
2023-04-16T06:24:05.087Z,1.13
2023-04-16T06:26:31.185Z,1.20
2023-04-16T06:28:57.258Z,1.45
2023-04-16T06:31:23.963Z,1.38
2023-04-16T06:33:50.084Z,1.20
2023-04-16T06:36:16.300Z,1.00
2023-04-16T06:38:42.746Z,1.30
2023-04-16T06:41:09.108Z,1.38
2023-04-16T06:43:35.428Z,1.35
2023-04-16T06:46:01.478Z,1.40
2023-04-16T06:48:27.690Z,1.40
2023-04-16T06:50:54.898Z,1.33
2023-04-16T06:53:21.075Z,1.50
2023-04-16T06:55:47.128Z,1.35
2023-04-16T06:58:13.192Z,1.42
2023-04-16T07:00:39.289Z,1.20
2023-04-16T07:03:05.722Z,1.20
2023-04-16T07:05:31.965Z,1.27
2023-04-16T07:07:59.081Z,1.40
2023-04-16T07:10:25.202Z,1.38
2023-04-16T07:12:51.307Z,1.30
2023-04-16T07:15:17.556Z,1.48
2023-04-16T07:17:43.629Z,1.50
2023-04-16T07:20:10.096Z,1.30
2023-04-16T07:22:36.155Z,1.27
2023-04-16T07:25:02.438Z,1.30
2023-04-16T07:27:28.516Z,1.50
2023-04-16T07:29:55.046Z,1.42
2023-04-16T07:32:22.078Z,1.50
2023-04-16T07:34:48.183Z,1.35
2023-04-16T07:37:14.230Z,1.55
2023-04-16T07:39:40.284Z,1.40
2023-04-16T07:42:06.475Z,1.40
2023-04-16T07:44:32.639Z,1.52
2023-04-16T07:46:58.780Z,1.60
2023-04-16T07:49:24.950Z,1.60
2023-04-16T07:51:51.111Z,1.50
2023-04-16T07:54:17.226Z,1.35
2023-04-16T07:56:43.320Z,1.75
2023-04-16T07:59:21.778Z,1.50
2023-04-16T08:01:51.560Z,1.60
2023-04-16T08:04:23.629Z,1.50
2023-04-16T08:06:50.884Z,1.60
2023-04-16T08:09:18.136Z,1.48
2023-04-16T08:11:44.295Z,1.67
2023-04-16T08:14:10.617Z,1.60
2023-04-16T08:16:38.121Z,1.45
2023-04-16T08:19:04.180Z,1.73
2023-04-16T08:21:31.004Z,1.77
2023-04-16T08:23:57.234Z,1.63
2023-04-16T08:26:23.334Z,1.73
2023-04-16T08:28:49.387Z,1.40
2023-04-16T08:31:15.560Z,1.55
2023-04-16T08:33:41.684Z,1.70
2023-04-16T08:36:08.265Z,1.60
2023-04-16T08:38:34.343Z,1.80
2023-04-16T08:41:05.009Z,1.60
2023-04-16T08:43:36.720Z,1.50
2023-04-16T08:46:05.165Z,1.63
2023-04-16T08:48:33.183Z,1.83
2023-04-16T08:51:01.015Z,1.50
2023-04-16T08:53:36.648Z,1.70
2023-04-16T08:56:04.809Z,2.17
2023-04-16T08:58:34.035Z,1.67
2023-04-16T09:01:03.641Z,1.77
2023-04-16T09:03:32.712Z,1.50
2023-04-16T09:06:02.391Z,1.60
2023-04-16T09:08:29.747Z,1.65
2023-04-16T09:10:56.574Z,1.70
2023-04-16T09:13:22.893Z,1.80
2023-04-16T09:15:58.049Z,1.33
2023-04-16T09:18:24.353Z,2.00
2023-04-16T09:20:51.293Z,1.67
2023-04-16T09:23:17.724Z,1.90
2023-04-16T09:25:43.858Z,1.73
2023-04-16T09:28:10.381Z,1.77
2023-04-16T09:30:36.923Z,1.70
2023-04-16T09:33:21.505Z,1.65
2023-04-16T09:35:49.739Z,2.00
2023-04-16T09:38:16.220Z,2.00
2023-04-16T09:40:42.382Z,1.80
2023-04-16T09:43:18.402Z,1.90
2023-04-16T09:45:52.570Z,1.80
2023-04-16T09:48:32.688Z,1.55
2023-04-16T09:51:00.101Z,1.65
2023-04-16T09:53:28.139Z,1.83
2023-04-16T09:56:01.897Z,1.80
2023-04-16T09:58:28.961Z,1.80
2023-04-16T10:01:00.059Z,1.83
2023-04-16T10:03:31.216Z,1.90
2023-04-16T10:06:07.529Z,1.80
2023-04-16T10:08:33.579Z,1.80
2023-04-16T10:11:00.239Z,2.03
2023-04-16T10:13:30.505Z,1.75
2023-04-16T10:15:57.256Z,1.92
2023-04-16T10:18:23.441Z,2.22
2023-04-16T10:20:52.668Z,1.80
2023-04-16T10:23:20.818Z,1.80
2023-04-16T10:25:48.336Z,1.65
2023-04-16T10:28:15.381Z,1.67
2023-04-16T10:30:52.041Z,2.13
2023-04-16T10:33:23.742Z,2.28
2023-04-16T10:36:01.182Z,1.80
2023-04-16T10:38:31.950Z,1.95
2023-04-16T10:41:05.576Z,2.00
2023-04-16T10:43:38.288Z,1.77
2023-04-16T10:46:29.704Z,1.83
2023-04-16T10:49:00.277Z,2.15
2023-04-16T10:51:33.646Z,2.00
2023-04-16T10:54:09.309Z,1.77
2023-04-16T10:56:36.395Z,2.08
2023-04-16T10:59:06.752Z,2.20
2023-04-16T11:01:34.825Z,2.00
2023-04-16T11:04:21.101Z,2.10
2023-04-16T11:07:05.943Z,1.95
2023-04-16T11:10:03.388Z,2.00
2023-04-16T11:12:29.471Z,2.20
2023-04-16T11:15:01.718Z,2.10
2023-04-16T11:17:35.883Z,1.80
2023-04-16T11:20:02.336Z,1.73
2023-04-16T11:22:30.393Z,2.13
2023-04-16T11:24:56.814Z,1.95
2023-04-16T11:27:23.799Z,1.88
2023-04-16T11:29:58.081Z,2.15
2023-04-16T11:32:24.305Z,2.22
2023-04-16T11:34:50.459Z,1.73
2023-04-16T11:37:20.833Z,2.00
2023-04-16T11:39:48.782Z,2.10
2023-04-16T11:42:20.556Z,1.92
2023-04-16T11:44:50.568Z,2.15
2023-04-16T11:47:16.718Z,2.00
2023-04-16T11:49:42.948Z,2.15
2023-04-16T11:52:09.135Z,1.83
2023-04-16T11:54:36.250Z,1.88
2023-04-16T11:57:03.941Z,2.15
2023-04-16T11:59:30.391Z,2.13
2023-04-16T12:01:56.528Z,2.15
2023-04-16T12:04:26.019Z,2.10
2023-04-16T12:07:13.209Z,2.30
2023-04-16T12:09:42.036Z,2.00
2023-04-16T12:12:29.822Z,2.15
2023-04-16T12:14:58.860Z,2.40
2023-04-16T12:17:25.623Z,1.90
2023-04-16T12:20:00.447Z,2.20
2023-04-16T12:22:36.827Z,2.20
2023-04-16T12:25:24.107Z,2.40
2023-04-16T12:27:53.792Z,2.15
2023-04-16T12:30:22.161Z,2.05
2023-04-16T12:32:50.933Z,2.50
2023-04-16T12:35:30.960Z,2.20
2023-04-16T12:37:57.138Z,2.20
2023-04-16T12:40:23.189Z,2.08
2023-04-16T12:42:49.241Z,2.00
2023-04-16T12:45:15.345Z,2.03
2023-04-16T12:47:41.397Z,2.17
2023-04-16T12:50:07.766Z,1.90
2023-04-16T12:52:34.836Z,2.40
2023-04-16T12:55:02.122Z,2.13
2023-04-16T12:57:28.267Z,2.00
2023-04-16T12:59:56.381Z,2.13
2023-04-16T13:02:23.168Z,2.10
2023-04-16T13:04:50.330Z,2.22
2023-04-16T13:07:16.779Z,2.30
2023-04-16T13:09:43.725Z,2.00
2023-04-16T13:12:09.923Z,1.88
2023-04-16T13:14:36.363Z,1.95
2023-04-16T13:17:03.352Z,2.28
2023-04-16T13:19:30.344Z,2.08
2023-04-16T13:21:57.235Z,2.00
2023-04-16T13:24:23.950Z,2.15
2023-04-16T13:26:51.876Z,2.10
2023-04-16T13:29:18.811Z,2.20
2023-04-16T13:31:45.700Z,2.30
2023-04-16T13:34:12.099Z,2.05
2023-04-16T13:36:38.264Z,2.15
2023-04-16T13:39:10.006Z,2.50
2023-04-16T13:41:37.181Z,2.17
2023-04-16T13:44:03.313Z,2.28
2023-04-16T13:46:29.916Z,2.25
2023-04-16T13:48:56.008Z,2.30
2023-04-16T13:51:22.175Z,1.80
2023-04-16T13:53:48.381Z,2.40
2023-04-16T13:56:14.642Z,1.88
2023-04-16T13:58:41.121Z,2.25
2023-04-16T14:01:07.617Z,2.30
2023-04-16T14:03:38.159Z,2.15
2023-04-16T14:06:04.879Z,2.20
2023-04-16T14:08:31.084Z,2.17
2023-04-16T14:10:58.058Z,2.25
2023-04-16T14:13:24.830Z,2.20
2023-04-16T14:15:54.085Z,2.30
2023-04-16T14:18:20.307Z,2.10
2023-04-16T14:20:47.050Z,2.20
2023-04-16T14:23:13.547Z,2.20
2023-04-16T14:25:39.638Z,1.77
2023-04-16T14:28:05.776Z,2.22
2023-04-16T14:30:31.840Z,2.28
2023-04-16T14:32:57.974Z,1.90
2023-04-16T14:35:24.155Z,2.15
2023-04-16T14:37:50.408Z,2.00
2023-04-16T14:40:16.870Z,2.40
2023-04-16T14:42:43.629Z,2.33
2023-04-16T14:45:10.379Z,2.05
2023-04-16T14:47:42.131Z,1.75
2023-04-16T14:50:09.653Z,2.33
2023-04-16T14:52:35.792Z,2.05
2023-04-16T14:55:01.936Z,1.98
2023-04-16T14:57:28.038Z,1.95
2023-04-16T14:59:54.088Z,1.77
2023-04-16T15:02:21.139Z,2.10
2023-04-16T15:04:47.362Z,2.25
2023-04-16T15:07:13.425Z,1.80
2023-04-16T15:09:39.624Z,2.20
2023-04-16T15:12:05.814Z,1.65
2023-04-16T15:14:31.887Z,2.00
2023-04-16T15:16:58.081Z,2.20
2023-04-16T15:19:25.106Z,2.10
2023-04-16T15:21:51.214Z,2.10
2023-04-16T15:24:17.477Z,2.10
2023-04-16T15:26:43.585Z,2.05
2023-04-16T15:29:09.718Z,2.20
2023-04-16T15:31:35.789Z,2.13
2023-04-16T15:34:01.952Z,2.00
2023-04-16T15:36:28.038Z,1.88
2023-04-16T15:38:54.164Z,1.80
2023-04-16T15:41:20.366Z,1.75
2023-04-16T15:43:46.445Z,1.60
2023-04-16T15:46:12.626Z,2.00
2023-04-16T15:48:38.714Z,2.10
2023-04-16T15:51:04.999Z,1.85
2023-04-16T15:53:31.095Z,1.70
2023-04-16T15:55:57.460Z,1.85
2023-04-16T15:58:23.554Z,1.67
2023-04-16T16:00:50.136Z,1.60
2023-04-16T16:03:19.537Z,1.98
2023-04-16T16:05:47.329Z,1.85
2023-04-16T16:08:14.052Z,1.75
2023-04-16T16:10:40.378Z,1.60
2023-04-16T16:13:07.350Z,1.50
2023-04-16T16:15:33.571Z,1.80
2023-04-16T16:17:59.702Z,1.38
2023-04-16T16:20:26.767Z,1.67
2023-04-16T16:22:53.013Z,1.73
2023-04-16T16:25:19.550Z,1.50
2023-04-16T16:27:45.631Z,1.65
2023-04-16T16:30:12.164Z,1.45
2023-04-16T16:32:40.301Z,1.40
2023-04-16T16:35:08.327Z,1.60
2023-04-16T16:37:35.083Z,1.55
2023-04-16T16:40:01.249Z,1.80
2023-04-16T16:42:27.379Z,1.40
2023-04-16T16:44:54.793Z,1.35
2023-04-16T16:47:23.816Z,1.77
2023-04-16T16:49:50.577Z,1.50
2023-04-16T16:52:16.850Z,1.33
2023-04-16T16:54:42.989Z,1.35
2023-04-16T16:57:09.050Z,1.48
2023-04-16T16:59:35.100Z,1.25
2023-04-16T17:02:01.249Z,1.15
2023-04-16T17:04:27.461Z,0.90
2023-04-16T17:06:53.647Z,1.20
2023-04-16T17:09:19.792Z,0.90
2023-04-16T17:11:45.911Z,1.27
2023-04-16T17:14:11.984Z,1.08
2023-04-16T17:16:38.141Z,1.00
2023-04-16T17:19:04.740Z,0.90
2023-04-16T17:21:32.587Z,1.10
2023-04-16T17:23:58.849Z,1.10
2023-04-16T17:26:25.043Z,1.08
2023-04-16T17:28:51.116Z,1.30
2023-04-16T17:31:17.526Z,1.13
2023-04-16T17:33:43.618Z,1.00
2023-04-16T17:36:09.717Z,1.23
2023-04-16T17:38:35.851Z,1.20
2023-04-16T17:41:01.898Z,0.93
2023-04-16T17:43:28.053Z,1.10
2023-04-16T17:45:54.119Z,0.95
2023-04-16T17:48:20.277Z,0.95
2023-04-16T17:50:46.420Z,0.98
2023-04-16T17:53:12.489Z,1.05
2023-04-16T17:55:38.553Z,1.02
2023-04-16T17:58:04.708Z,1.33
2023-04-16T18:00:30.834Z,1.05
2023-04-16T18:02:59.024Z,1.02
2023-04-16T18:05:25.461Z,1.10
2023-04-16T18:07:51.520Z,1.00
2023-04-16T18:10:17.619Z,0.98
2023-04-16T18:12:43.766Z,0.90
2023-04-16T18:15:10.254Z,1.10
2023-04-16T18:17:36.357Z,0.90
2023-04-16T18:20:04.768Z,0.90
2023-04-16T18:22:31.263Z,0.90
2023-04-16T18:24:58.099Z,0.88
2023-04-16T18:27:24.302Z,0.75
2023-04-16T18:29:51.357Z,1.00
2023-04-16T18:32:18.293Z,1.00
2023-04-16T18:34:44.739Z,1.02
2023-04-16T18:37:10.822Z,0.93
2023-04-16T18:39:36.963Z,0.88
2023-04-16T18:42:03.171Z,1.10
2023-04-16T18:44:29.216Z,1.05
2023-04-16T18:46:55.503Z,0.90
2023-04-16T18:49:21.722Z,1.02
2023-04-16T18:51:47.919Z,0.98
2023-04-16T18:54:15.077Z,0.90
2023-04-16T18:56:41.209Z,1.08
2023-04-16T18:59:07.338Z,1.25
2023-04-16T19:01:33.387Z,1.10
2023-04-16T19:03:59.626Z,1.00
2023-04-16T19:06:26.863Z,0.93
2023-04-16T19:08:52.910Z,0.80
2023-04-16T19:11:18.962Z,0.90
2023-04-16T19:13:45.231Z,1.00
2023-04-16T19:16:11.835Z,1.00
2023-04-16T19:18:38.608Z,1.00
2023-04-16T19:21:06.257Z,0.95
2023-04-16T19:23:32.315Z,1.17
2023-04-16T19:25:58.536Z,1.10
2023-04-16T19:28:25.200Z,1.05
2023-04-16T19:30:52.285Z,0.90
2023-04-16T19:33:18.808Z,1.10
2023-04-16T19:35:45.788Z,1.30
2023-04-16T19:38:11.929Z,1.05
2023-04-16T19:40:38.072Z,1.40
2023-04-16T19:43:04.217Z,1.10
2023-04-16T19:45:30.668Z,0.90
2023-04-16T19:47:57.222Z,1.10
2023-04-16T19:50:23.297Z,1.00
2023-04-16T19:52:49.347Z,1.10
2023-04-16T19:55:15.541Z,1.10
2023-04-16T19:57:41.603Z,0.95
2023-04-16T20:00:11.275Z,1.00
2023-04-16T20:02:37.705Z,1.00
2023-04-16T20:05:04.107Z,1.00
2023-04-16T20:07:30.170Z,1.13
2023-04-16T20:09:56.318Z,1.00
2023-04-16T20:12:22.492Z,1.10
2023-04-16T20:14:48.549Z,1.00
2023-04-16T20:17:18.005Z,1.10
2023-04-16T20:19:46.615Z,1.00
2023-04-16T20:22:14.246Z,1.13
2023-04-16T20:24:40.899Z,1.00
2023-04-16T20:27:06.960Z,1.20
2023-04-16T20:29:33.010Z,1.10
2023-04-16T20:31:59.071Z,1.00
2023-04-16T20:34:25.954Z,1.10
2023-04-16T20:36:53.610Z,1.10
2023-04-16T20:39:19.777Z,1.00
2023-04-16T20:41:55.863Z,1.15
2023-04-16T20:44:25.532Z,0.80
2023-04-16T20:46:54.236Z,1.08
2023-04-16T20:49:20.397Z,1.13
2023-04-16T20:51:46.511Z,1.10
2023-04-16T20:54:12.591Z,0.90
2023-04-16T20:56:38.652Z,1.27
2023-04-16T20:59:04.896Z,1.10
2023-04-16T21:01:31.128Z,1.00
2023-04-16T21:03:57.468Z,1.00
2023-04-16T21:06:23.720Z,1.00
2023-04-16T21:08:49.848Z,1.20
2023-04-16T21:11:15.902Z,0.95
2023-04-16T21:13:42.012Z,1.10
2023-04-16T21:16:09.218Z,1.23
2023-04-16T21:18:36.648Z,1.25
2023-04-16T21:21:02.883Z,1.35
2023-04-16T21:23:29.119Z,1.20
2023-04-16T21:25:58.190Z,1.20
2023-04-16T21:28:24.266Z,1.10
2023-04-16T21:30:51.571Z,1.25
2023-04-16T21:33:17.665Z,1.20
2023-04-16T21:35:43.737Z,1.00
2023-04-16T21:38:09.853Z,1.05
2023-04-16T21:40:35.904Z,0.95
2023-04-16T21:43:02.532Z,1.08
2023-04-16T21:45:30.646Z,1.35
2023-04-16T21:47:56.808Z,1.38
2023-04-16T21:50:23.387Z,1.30
2023-04-16T21:52:49.491Z,1.10
2023-04-16T21:55:15.563Z,1.20
2023-04-16T21:57:41.618Z,1.08
2023-04-16T22:00:11.524Z,1.17
2023-04-16T22:02:37.694Z,1.00
2023-04-16T22:05:04.083Z,1.10
2023-04-16T22:07:30.137Z,1.05
2023-04-16T22:09:56.371Z,1.10
2023-04-16T22:12:22.536Z,1.08
2023-04-16T22:14:59.727Z,0.90
2023-04-16T22:17:28.733Z,0.80
2023-04-16T22:19:54.782Z,1.10
2023-04-16T22:22:21.908Z,1.10
2023-04-16T22:24:48.446Z,1.02
2023-04-16T22:27:14.538Z,1.10
2023-04-16T22:29:40.595Z,1.00
2023-04-16T22:32:06.992Z,1.05
2023-04-16T22:34:33.130Z,0.90
2023-04-16T22:37:00.752Z,1.05
2023-04-16T22:39:27.956Z,1.10
2023-04-16T22:41:54.063Z,1.00
2023-04-16T22:44:20.153Z,0.88
2023-04-16T22:46:46.203Z,1.13
2023-04-16T22:49:12.653Z,1.00
2023-04-16T22:51:39.564Z,1.30
2023-04-16T22:54:06.637Z,0.90
2023-04-16T22:56:32.912Z,0.90
2023-04-16T22:58:58.948Z,0.90
2023-04-16T23:01:25.234Z,1.00
2023-04-16T23:03:52.191Z,1.00
2023-04-16T23:06:18.268Z,0.80
2023-04-16T23:08:44.411Z,1.00
2023-04-16T23:11:10.555Z,0.82
2023-04-16T23:13:36.861Z,0.80
2023-04-16T23:16:03.031Z,0.90
2023-04-16T23:18:29.182Z,0.85
2023-04-16T23:20:55.444Z,0.85
2023-04-16T23:23:21.521Z,0.90
2023-04-16T23:25:47.627Z,0.93
2023-04-16T23:28:13.696Z,0.85
2023-04-16T23:30:39.757Z,0.90
2023-04-16T23:33:06.823Z,0.85
2023-04-16T23:35:32.975Z,0.77
2023-04-16T23:37:59.019Z,0.70
2023-04-16T23:40:25.112Z,0.85
2023-04-16T23:42:51.195Z,0.90
2023-04-16T23:45:17.419Z,1.00
2023-04-16T23:47:43.969Z,0.80
2023-04-16T23:50:10.448Z,0.88
2023-04-16T23:52:36.688Z,0.70
2023-04-16T23:55:02.863Z,0.90
2023-04-16T23:57:28.906Z,0.80
2023-04-16T23:59:55.516Z,0.70
